sensor_id;sensor_type;location;lat;lon;timestamp;P1;durP1;ratioP1;P2;durP2;ratioP2
67433;SDS011;54305;47.950;6.572;2023-11-19T00:01:26;2.20;;;1.73;;
67433;SDS011;54305;47.950;6.572;2023-11-19T00:03:51;2.15;;;1.25;;
67433;SDS011;54305;47.950;6.572;2023-11-19T00:06:18;1.42;;;1.33;;
67433;SDS011;54305;47.950;6.572;2023-11-19T00:08:43;2.53;;;1.73;;
67433;SDS011;54305;47.950;6.572;2023-11-19T00:11:09;1.77;;;1.52;;
67433;SDS011;54305;47.950;6.572;2023-11-19T00:13:34;2.05;;;1.65;;
67433;SDS011;54305;47.950;6.572;2023-11-19T00:16:00;4.20;;;1.48;;
67433;SDS011;54305;47.950;6.572;2023-11-19T00:18:25;5.30;;;1.63;;
67433;SDS011;54305;47.950;6.572;2023-11-19T00:20:51;2.78;;;1.40;;
67433;SDS011;54305;47.950;6.572;2023-11-19T00:23:16;2.15;;;1.60;;
67433;SDS011;54305;47.950;6.572;2023-11-19T00:25:42;1.30;;;1.20;;
67433;SDS011;54305;47.950;6.572;2023-11-19T00:28:07;1.88;;;1.40;;
67433;SDS011;54305;47.950;6.572;2023-11-19T00:30:33;1.40;;;1.30;;
67433;SDS011;54305;47.950;6.572;2023-11-19T00:32:58;2.15;;;1.30;;
67433;SDS011;54305;47.950;6.572;2023-11-19T00:35:23;1.75;;;1.55;;
67433;SDS011;54305;47.950;6.572;2023-11-19T00:37:49;2.45;;;1.83;;
67433;SDS011;54305;47.950;6.572;2023-11-19T00:40:15;1.70;;;1.58;;
67433;SDS011;54305;47.950;6.572;2023-11-19T00:42:46;1.70;;;1.60;;
67433;SDS011;54305;47.950;6.572;2023-11-19T00:45:12;2.05;;;1.50;;
67433;SDS011;54305;47.950;6.572;2023-11-19T00:47:38;1.60;;;1.50;;
67433;SDS011;54305;47.950;6.572;2023-11-19T00:50:03;1.48;;;1.38;;
67433;SDS011;54305;47.950;6.572;2023-11-19T00:52:29;1.80;;;1.40;;
67433;SDS011;54305;47.950;6.572;2023-11-19T00:54:54;1.83;;;1.42;;
67433;SDS011;54305;47.950;6.572;2023-11-19T00:57:22;1.30;;;1.20;;
67433;SDS011;54305;47.950;6.572;2023-11-19T00:59:53;1.20;;;1.10;;
67433;SDS011;54305;47.950;6.572;2023-11-19T01:02:19;2.75;;;1.10;;
67433;SDS011;54305;47.950;6.572;2023-11-19T01:04:44;1.00;;;1.00;;
67433;SDS011;54305;47.950;6.572;2023-11-19T01:07:10;0.80;;;0.80;;
67433;SDS011;54305;47.950;6.572;2023-11-19T01:09:38;0.80;;;0.80;;
67433;SDS011;54305;47.950;6.572;2023-11-19T01:12:06;0.70;;;0.70;;
67433;SDS011;54305;47.950;6.572;2023-11-19T01:14:32;0.50;;;0.50;;
67433;SDS011;54305;47.950;6.572;2023-11-19T01:16:57;0.60;;;0.60;;
67433;SDS011;54305;47.950;6.572;2023-11-19T01:19:22;0.40;;;0.40;;
67433;SDS011;54305;47.950;6.572;2023-11-19T01:21:49;0.35;;;0.35;;
67433;SDS011;54305;47.950;6.572;2023-11-19T01:24:15;0.50;;;0.50;;
67433;SDS011;54305;47.950;6.572;2023-11-19T01:26:41;0.35;;;0.35;;
67433;SDS011;54305;47.950;6.572;2023-11-19T01:29:15;0.40;;;0.40;;
67433;SDS011;54305;47.950;6.572;2023-11-19T01:31:41;0.45;;;0.43;;
67433;SDS011;54305;47.950;6.572;2023-11-19T01:34:07;0.35;;;0.35;;
67433;SDS011;54305;47.950;6.572;2023-11-19T01:36:33;0.30;;;0.30;;
67433;SDS011;54305;47.950;6.572;2023-11-19T01:38:58;0.10;;;0.10;;
67433;SDS011;54305;47.950;6.572;2023-11-19T01:41:24;0.20;;;0.20;;
67433;SDS011;54305;47.950;6.572;2023-11-19T01:43:50;0.32;;;0.28;;
67433;SDS011;54305;47.950;6.572;2023-11-19T01:46:15;0.47;;;0.20;;
67433;SDS011;54305;47.950;6.572;2023-11-19T01:48:42;0.20;;;0.20;;
67433;SDS011;54305;47.950;6.572;2023-11-19T01:51:09;0.20;;;0.20;;
67433;SDS011;54305;47.950;6.572;2023-11-19T01:53:36;0.08;;;0.08;;
67433;SDS011;54305;47.950;6.572;2023-11-19T01:56:03;0.10;;;0.10;;
67433;SDS011;54305;47.950;6.572;2023-11-19T01:58:34;0.10;;;0.10;;
67433;SDS011;54305;47.950;6.572;2023-11-19T02:01:00;0.13;;;0.13;;
67433;SDS011;54305;47.950;6.572;2023-11-19T02:03:28;0.10;;;0.10;;
67433;SDS011;54305;47.950;6.572;2023-11-19T02:05:56;0.13;;;0.13;;
67433;SDS011;54305;47.950;6.572;2023-11-19T02:08:22;0.15;;;0.15;;
67433;SDS011;54305;47.950;6.572;2023-11-19T02:10:47;0.30;;;0.30;;
67433;SDS011;54305;47.950;6.572;2023-11-19T02:13:13;0.35;;;0.35;;
67433;SDS011;54305;47.950;6.572;2023-11-19T02:15:39;0.20;;;0.20;;
67433;SDS011;54305;47.950;6.572;2023-11-19T02:20:43;0.20;;;0.20;;
67433;SDS011;54305;47.950;6.572;2023-11-19T02:23:09;0.17;;;0.17;;
67433;SDS011;54305;47.950;6.572;2023-11-19T02:25:34;0.45;;;0.45;;
67433;SDS011;54305;47.950;6.572;2023-11-19T02:28:01;0.30;;;0.30;;
67433;SDS011;54305;47.950;6.572;2023-11-19T02:30:28;0.30;;;0.30;;
67433;SDS011;54305;47.950;6.572;2023-11-19T02:32:57;0.20;;;0.20;;
67433;SDS011;54305;47.950;6.572;2023-11-19T02:35:30;0.15;;;0.15;;
67433;SDS011;54305;47.950;6.572;2023-11-19T02:37:57;0.30;;;0.30;;
67433;SDS011;54305;47.950;6.572;2023-11-19T02:40:24;0.40;;;0.40;;
67433;SDS011;54305;47.950;6.572;2023-11-19T02:42:50;0.77;;;0.70;;
67433;SDS011;54305;47.950;6.572;2023-11-19T02:45:16;0.32;;;0.32;;
67433;SDS011;54305;47.950;6.572;2023-11-19T02:47:42;0.57;;;0.45;;
67433;SDS011;54305;47.950;6.572;2023-11-19T02:50:09;0.40;;;0.40;;
67433;SDS011;54305;47.950;6.572;2023-11-19T02:52:43;0.40;;;0.40;;
67433;SDS011;54305;47.950;6.572;2023-11-19T02:55:11;0.30;;;0.30;;
67433;SDS011;54305;47.950;6.572;2023-11-19T02:57:40;0.40;;;0.40;;
67433;SDS011;54305;47.950;6.572;2023-11-19T03:00:14;0.50;;;0.50;;
67433;SDS011;54305;47.950;6.572;2023-11-19T03:02:41;0.45;;;0.45;;
67433;SDS011;54305;47.950;6.572;2023-11-19T03:05:12;0.40;;;0.40;;
67433;SDS011;54305;47.950;6.572;2023-11-19T03:07:39;0.40;;;0.40;;
67433;SDS011;54305;47.950;6.572;2023-11-19T03:10:11;0.40;;;0.40;;
67433;SDS011;54305;47.950;6.572;2023-11-19T03:12:40;0.32;;;0.32;;
67433;SDS011;54305;47.950;6.572;2023-11-19T03:15:06;0.50;;;0.50;;
67433;SDS011;54305;47.950;6.572;2023-11-19T03:17:34;0.38;;;0.38;;
67433;SDS011;54305;47.950;6.572;2023-11-19T03:20:07;1.38;;;0.65;;
67433;SDS011;54305;47.950;6.572;2023-11-19T03:22:42;0.60;;;0.60;;
67433;SDS011;54305;47.950;6.572;2023-11-19T03:25:09;0.50;;;0.50;;
67433;SDS011;54305;47.950;6.572;2023-11-19T03:27:35;0.80;;;0.60;;
67433;SDS011;54305;47.950;6.572;2023-11-19T03:30:02;0.50;;;0.50;;
67433;SDS011;54305;47.950;6.572;2023-11-19T03:32:29;0.60;;;0.60;;
67433;SDS011;54305;47.950;6.572;2023-11-19T03:34:56;0.40;;;0.40;;
67433;SDS011;54305;47.950;6.572;2023-11-19T03:37:21;0.60;;;0.60;;
67433;SDS011;54305;47.950;6.572;2023-11-19T03:39:46;2.38;;;0.60;;
67433;SDS011;54305;47.950;6.572;2023-11-19T03:42:12;0.45;;;0.45;;
67433;SDS011;54305;47.950;6.572;2023-11-19T03:44:38;0.65;;;0.65;;
67433;SDS011;54305;47.950;6.572;2023-11-19T03:47:04;0.60;;;0.60;;
67433;SDS011;54305;47.950;6.572;2023-11-19T03:49:29;0.70;;;0.70;;
67433;SDS011;54305;47.950;6.572;2023-11-19T03:51:54;0.77;;;0.63;;
67433;SDS011;54305;47.950;6.572;2023-11-19T03:54:20;0.80;;;0.80;;
67433;SDS011;54305;47.950;6.572;2023-11-19T03:56:47;0.90;;;0.90;;
67433;SDS011;54305;47.950;6.572;2023-11-19T03:59:13;0.90;;;0.90;;
67433;SDS011;54305;47.950;6.572;2023-11-19T04:01:40;4.80;;;1.52;;
67433;SDS011;54305;47.950;6.572;2023-11-19T04:04:05;42.25;;;2.40;;
67433;SDS011;54305;47.950;6.572;2023-11-19T04:06:31;4.13;;;1.58;;
67433;SDS011;54305;47.950;6.572;2023-11-19T04:08:56;2.53;;;1.67;;
67433;SDS011;54305;47.950;6.572;2023-11-19T04:11:22;1.77;;;1.67;;
67433;SDS011;54305;47.950;6.572;2023-11-19T04:13:47;1.40;;;1.30;;
67433;SDS011;54305;47.950;6.572;2023-11-19T04:16:13;4.55;;;1.90;;
67433;SDS011;54305;47.950;6.572;2023-11-19T04:18:39;1.27;;;1.17;;
67433;SDS011;54305;47.950;6.572;2023-11-19T04:21:06;1.48;;;1.38;;
67433;SDS011;54305;47.950;6.572;2023-11-19T04:23:32;2.08;;;1.40;;
67433;SDS011;54305;47.950;6.572;2023-11-19T04:25:57;3.67;;;1.60;;
67433;SDS011;54305;47.950;6.572;2023-11-19T04:28:23;4.22;;;1.65;;
67433;SDS011;54305;47.950;6.572;2023-11-19T04:30:52;2.88;;;1.52;;
67433;SDS011;54305;47.950;6.572;2023-11-19T04:33:17;1.75;;;1.45;;
67433;SDS011;54305;47.950;6.572;2023-11-19T04:35:42;1.92;;;1.83;;
67433;SDS011;54305;47.950;6.572;2023-11-19T04:38:08;1.67;;;1.58;;
67433;SDS011;54305;47.950;6.572;2023-11-19T04:40:33;17.98;;;2.40;;
67433;SDS011;54305;47.950;6.572;2023-11-19T04:42:59;126.57;;;4.75;;
67433;SDS011;54305;47.950;6.572;2023-11-19T04:45:24;196.05;;;5.80;;
67433;SDS011;54305;47.950;6.572;2023-11-19T04:47:49;236.52;;;5.65;;
67433;SDS011;54305;47.950;6.572;2023-11-19T04:50:15;276.00;;;6.82;;
67433;SDS011;54305;47.950;6.572;2023-11-19T04:52:40;278.58;;;6.90;;
67433;SDS011;54305;47.950;6.572;2023-11-19T04:55:07;255.23;;;6.15;;
67433;SDS011;54305;47.950;6.572;2023-11-19T04:57:32;160.88;;;4.90;;
67433;SDS011;54305;47.950;6.572;2023-11-19T04:59:58;20.75;;;2.40;;
67433;SDS011;54305;47.950;6.572;2023-11-19T05:02:24;56.45;;;2.92;;
67433;SDS011;54305;47.950;6.572;2023-11-19T05:04:49;196.95;;;6.25;;
67433;SDS011;54305;47.950;6.572;2023-11-19T05:07:15;72.63;;;2.95;;
67433;SDS011;54305;47.950;6.572;2023-11-19T05:09:40;39.10;;;2.75;;
67433;SDS011;54305;47.950;6.572;2023-11-19T05:12:05;1.80;;;1.42;;
67433;SDS011;54305;47.950;6.572;2023-11-19T05:14:34;1.85;;;1.40;;
67433;SDS011;54305;47.950;6.572;2023-11-19T05:17:00;1.23;;;1.15;;
67433;SDS011;54305;47.950;6.572;2023-11-19T05:19:25;0.98;;;0.98;;
67433;SDS011;54305;47.950;6.572;2023-11-19T05:21:51;1.13;;;1.00;;
67433;SDS011;54305;47.950;6.572;2023-11-19T05:24:17;0.85;;;0.85;;
67433;SDS011;54305;47.950;6.572;2023-11-19T05:26:43;0.80;;;0.80;;
67433;SDS011;54305;47.950;6.572;2023-11-19T05:29:08;0.85;;;0.75;;
67433;SDS011;54305;47.950;6.572;2023-11-19T05:31:34;0.80;;;0.80;;
67433;SDS011;54305;47.950;6.572;2023-11-19T05:33:59;1.70;;;0.80;;
67433;SDS011;54305;47.950;6.572;2023-11-19T05:36:24;0.70;;;0.70;;
67433;SDS011;54305;47.950;6.572;2023-11-19T05:38:50;0.70;;;0.70;;
67433;SDS011;54305;47.950;6.572;2023-11-19T05:41:15;0.90;;;0.90;;
67433;SDS011;54305;47.950;6.572;2023-11-19T05:43:40;1.38;;;0.90;;
67433;SDS011;54305;47.950;6.572;2023-11-19T05:46:06;0.60;;;0.60;;
67433;SDS011;54305;47.950;6.572;2023-11-19T05:48:33;0.60;;;0.60;;
67433;SDS011;54305;47.950;6.572;2023-11-19T05:50:59;0.70;;;0.70;;
67433;SDS011;54305;47.950;6.572;2023-11-19T05:53:25;0.75;;;0.75;;
67433;SDS011;54305;47.950;6.572;2023-11-19T05:55:50;3.65;;;0.90;;
67433;SDS011;54305;47.950;6.572;2023-11-19T05:58:23;14.15;;;1.17;;
67433;SDS011;54305;47.950;6.572;2023-11-19T06:00:54;1.00;;;1.00;;
67433;SDS011;54305;47.950;6.572;2023-11-19T06:03:20;1.10;;;1.10;;
67433;SDS011;54305;47.950;6.572;2023-11-19T06:05:46;1.08;;;0.98;;
67433;SDS011;54305;47.950;6.572;2023-11-19T06:08:14;1.13;;;0.80;;
67433;SDS011;54305;47.950;6.572;2023-11-19T06:10:40;0.73;;;0.73;;
67433;SDS011;54305;47.950;6.572;2023-11-19T06:13:06;0.73;;;0.73;;
67433;SDS011;54305;47.950;6.572;2023-11-19T06:15:32;1.48;;;1.10;;
67433;SDS011;54305;47.950;6.572;2023-11-19T06:17:58;1.00;;;1.00;;
67433;SDS011;54305;47.950;6.572;2023-11-19T06:20:28;3.67;;;1.25;;
67433;SDS011;54305;47.950;6.572;2023-11-19T06:22:56;1.45;;;1.35;;
67433;SDS011;54305;47.950;6.572;2023-11-19T06:25:23;5.97;;;1.52;;
67433;SDS011;54305;47.950;6.572;2023-11-19T06:27:49;23.05;;;2.13;;
67433;SDS011;54305;47.950;6.572;2023-11-19T06:30:14;84.25;;;2.97;;
67433;SDS011;54305;47.950;6.572;2023-11-19T06:32:40;29.45;;;2.22;;
67433;SDS011;54305;47.950;6.572;2023-11-19T06:35:05;33.67;;;2.50;;
67433;SDS011;54305;47.950;6.572;2023-11-19T06:37:31;37.42;;;2.58;;
67433;SDS011;54305;47.950;6.572;2023-11-19T06:39:57;2.13;;;1.83;;
67433;SDS011;54305;47.950;6.572;2023-11-19T06:42:22;40.08;;;2.50;;
67433;SDS011;54305;47.950;6.572;2023-11-19T06:44:47;79.07;;;3.67;;
67433;SDS011;54305;47.950;6.572;2023-11-19T06:47:13;49.15;;;2.85;;
67433;SDS011;54305;47.950;6.572;2023-11-19T06:49:38;60.55;;;3.00;;
67433;SDS011;54305;47.950;6.572;2023-11-19T06:52:04;51.85;;;2.92;;
67433;SDS011;54305;47.950;6.572;2023-11-19T06:54:29;29.35;;;2.35;;
67433;SDS011;54305;47.950;6.572;2023-11-19T06:56:56;120.22;;;4.70;;
67433;SDS011;54305;47.950;6.572;2023-11-19T06:59:22;204.55;;;5.53;;
67433;SDS011;54305;47.950;6.572;2023-11-19T07:01:48;255.18;;;6.78;;
67433;SDS011;54305;47.950;6.572;2023-11-19T07:04:13;145.70;;;4.78;;
67433;SDS011;54305;47.950;6.572;2023-11-19T07:06:39;224.68;;;6.25;;
67433;SDS011;54305;47.950;6.572;2023-11-19T07:09:06;202.60;;;5.28;;
67433;SDS011;54305;47.950;6.572;2023-11-19T07:11:38;180.00;;;5.60;;
67433;SDS011;54305;47.950;6.572;2023-11-19T07:14:04;404.30;;;9.38;;
67433;SDS011;54305;47.950;6.572;2023-11-19T07:16:31;344.08;;;7.85;;
67433;SDS011;54305;47.950;6.572;2023-11-19T07:18:58;324.50;;;8.77;;
67433;SDS011;54305;47.950;6.572;2023-11-19T07:21:25;83.97;;;4.10;;
67433;SDS011;54305;47.950;6.572;2023-11-19T07:23:50;264.70;;;6.28;;
67433;SDS011;54305;47.950;6.572;2023-11-19T07:26:16;139.07;;;4.72;;
67433;SDS011;54305;47.950;6.572;2023-11-19T07:28:42;227.60;;;6.63;;
67433;SDS011;54305;47.950;6.572;2023-11-19T07:31:10;75.90;;;4.80;;
67433;SDS011;54305;47.950;6.572;2023-11-19T07:33:35;5.70;;;2.58;;
67433;SDS011;54305;47.950;6.572;2023-11-19T07:36:01;2.88;;;2.22;;
67433;SDS011;54305;47.950;6.572;2023-11-19T07:38:26;5.13;;;1.80;;
67433;SDS011;54305;47.950;6.572;2023-11-19T07:40:52;3.17;;;1.83;;
67433;SDS011;54305;47.950;6.572;2023-11-19T07:43:17;2.17;;;1.98;;
67433;SDS011;54305;47.950;6.572;2023-11-19T07:45:42;22.77;;;2.15;;
67433;SDS011;54305;47.950;6.572;2023-11-19T07:48:11;9.02;;;2.47;;
67433;SDS011;54305;47.950;6.572;2023-11-19T07:50:38;6.80;;;1.98;;
67433;SDS011;54305;47.950;6.572;2023-11-19T07:53:06;11.13;;;2.20;;
67433;SDS011;54305;47.950;6.572;2023-11-19T07:55:32;3.15;;;2.33;;
67433;SDS011;54305;47.950;6.572;2023-11-19T07:57:58;4.07;;;2.22;;
67433;SDS011;54305;47.950;6.572;2023-11-19T08:00:23;3.30;;;2.22;;
67433;SDS011;54305;47.950;6.572;2023-11-19T08:02:48;7.55;;;2.10;;
67433;SDS011;54305;47.950;6.572;2023-11-19T08:05:14;2.35;;;2.00;;
67433;SDS011;54305;47.950;6.572;2023-11-19T08:07:39;7.95;;;1.80;;
67433;SDS011;54305;47.950;6.572;2023-11-19T08:10:05;36.17;;;2.90;;
67433;SDS011;54305;47.950;6.572;2023-11-19T08:12:34;11.43;;;1.85;;
67433;SDS011;54305;47.950;6.572;2023-11-19T08:15:01;1.60;;;1.50;;
67433;SDS011;54305;47.950;6.572;2023-11-19T08:17:30;0.90;;;0.90;;
67433;SDS011;54305;47.950;6.572;2023-11-19T08:19:55;1.92;;;1.80;;
67433;SDS011;54305;47.950;6.572;2023-11-19T08:22:21;1.10;;;1.00;;
67433;SDS011;54305;47.950;6.572;2023-11-19T08:24:47;1.02;;;0.95;;
67433;SDS011;54305;47.950;6.572;2023-11-19T08:27:13;1.00;;;1.00;;
67433;SDS011;54305;47.950;6.572;2023-11-19T08:29:38;1.02;;;1.02;;
67433;SDS011;54305;47.950;6.572;2023-11-19T08:32:04;1.25;;;1.15;;
67433;SDS011;54305;47.950;6.572;2023-11-19T08:34:30;2.22;;;1.00;;
67433;SDS011;54305;47.950;6.572;2023-11-19T08:36:55;21.75;;;1.58;;
67433;SDS011;54305;47.950;6.572;2023-11-19T08:39:21;142.77;;;3.97;;
67433;SDS011;54305;47.950;6.572;2023-11-19T08:41:49;227.82;;;5.10;;
67433;SDS011;54305;47.950;6.572;2023-11-19T08:44:15;291.77;;;7.82;;
67433;SDS011;54305;47.950;6.572;2023-11-19T08:46:48;128.73;;;6.15;;
67433;SDS011;54305;47.950;6.572;2023-11-19T08:49:16;29.30;;;2.25;;
67433;SDS011;54305;47.950;6.572;2023-11-19T08:51:43;96.57;;;3.17;;
67433;SDS011;54305;47.950;6.572;2023-11-19T08:54:09;196.15;;;4.95;;
67433;SDS011;54305;47.950;6.572;2023-11-19T08:56:35;190.77;;;4.68;;
67433;SDS011;54305;47.950;6.572;2023-11-19T08:59:01;45.75;;;2.35;;
67433;SDS011;54305;47.950;6.572;2023-11-19T09:01:26;188.57;;;5.05;;
67433;SDS011;54305;47.950;6.572;2023-11-19T09:03:52;83.25;;;3.35;;
67433;SDS011;54305;47.950;6.572;2023-11-19T09:06:17;22.98;;;2.10;;
67433;SDS011;54305;47.950;6.572;2023-11-19T09:08:43;127.18;;;4.15;;
67433;SDS011;54305;47.950;6.572;2023-11-19T09:11:08;229.20;;;5.78;;
67433;SDS011;54305;47.950;6.572;2023-11-19T09:13:34;292.77;;;6.88;;
67433;SDS011;54305;47.950;6.572;2023-11-19T09:16:02;306.23;;;6.68;;
67433;SDS011;54305;47.950;6.572;2023-11-19T09:18:31;184.45;;;5.20;;
67433;SDS011;54305;47.950;6.572;2023-11-19T09:21:00;126.65;;;4.05;;
67433;SDS011;54305;47.950;6.572;2023-11-19T09:23:25;214.75;;;6.03;;
67433;SDS011;54305;47.950;6.572;2023-11-19T09:25:52;33.65;;;2.72;;
67433;SDS011;54305;47.950;6.572;2023-11-19T09:28:18;152.52;;;4.45;;
67433;SDS011;54305;47.950;6.572;2023-11-19T09:30:43;136.10;;;3.78;;
67433;SDS011;54305;47.950;6.572;2023-11-19T09:33:09;128.73;;;3.92;;
67433;SDS011;54305;47.950;6.572;2023-11-19T09:35:35;20.73;;;1.92;;
67433;SDS011;54305;47.950;6.572;2023-11-19T09:38:00;14.23;;;1.70;;
67433;SDS011;54305;47.950;6.572;2023-11-19T09:40:26;67.47;;;2.40;;
67433;SDS011;54305;47.950;6.572;2023-11-19T09:42:51;1.48;;;1.30;;
67433;SDS011;54305;47.950;6.572;2023-11-19T09:45:17;1.30;;;1.23;;
67433;SDS011;54305;47.950;6.572;2023-11-19T09:47:45;3.42;;;1.10;;
67433;SDS011;54305;47.950;6.572;2023-11-19T09:50:14;4.28;;;1.27;;
67433;SDS011;54305;47.950;6.572;2023-11-19T09:52:44;11.25;;;1.40;;
67433;SDS011;54305;47.950;6.572;2023-11-19T09:55:10;19.65;;;1.60;;
67433;SDS011;54305;47.950;6.572;2023-11-19T09:57:38;42.83;;;2.17;;
67433;SDS011;54305;47.950;6.572;2023-11-19T10:00:04;18.70;;;1.60;;
67433;SDS011;54305;47.950;6.572;2023-11-19T10:02:32;37.35;;;1.73;;
67433;SDS011;54305;47.950;6.572;2023-11-19T10:05:02;6.82;;;1.48;;
67433;SDS011;54305;47.950;6.572;2023-11-19T10:07:30;1.40;;;1.30;;
67433;SDS011;54305;47.950;6.572;2023-11-19T10:09:57;42.55;;;2.67;;
67433;SDS011;54305;47.950;6.572;2023-11-19T10:12:25;39.30;;;2.40;;
67433;SDS011;54305;47.950;6.572;2023-11-19T10:14:51;80.82;;;3.20;;
67433;SDS011;54305;47.950;6.572;2023-11-19T10:17:18;140.55;;;3.67;;
67433;SDS011;54305;47.950;6.572;2023-11-19T10:19:44;50.72;;;3.13;;
67433;SDS011;54305;47.950;6.572;2023-11-19T10:22:09;17.88;;;2.28;;
67433;SDS011;54305;47.950;6.572;2023-11-19T10:24:36;36.05;;;2.17;;
67433;SDS011;54305;47.950;6.572;2023-11-19T10:27:04;3.67;;;1.83;;
67433;SDS011;54305;47.950;6.572;2023-11-19T10:29:35;1.17;;;1.08;;
67433;SDS011;54305;47.950;6.572;2023-11-19T10:32:02;2.78;;;0.95;;
67433;SDS011;54305;47.950;6.572;2023-11-19T10:34:28;2.08;;;1.42;;
67433;SDS011;54305;47.950;6.572;2023-11-19T10:36:55;2.00;;;1.40;;
67433;SDS011;54305;47.950;6.572;2023-11-19T10:39:20;35.08;;;2.08;;
67433;SDS011;54305;47.950;6.572;2023-11-19T10:41:46;3.67;;;1.63;;
67433;SDS011;54305;47.950;6.572;2023-11-19T10:44:12;1.40;;;1.30;;
67433;SDS011;54305;47.950;6.572;2023-11-19T10:46:38;5.47;;;1.20;;
67433;SDS011;54305;47.950;6.572;2023-11-19T10:49:05;7.70;;;1.10;;
67433;SDS011;54305;47.950;6.572;2023-11-19T10:51:31;1.23;;;0.90;;
67433;SDS011;54305;47.950;6.572;2023-11-19T10:53:58;1.08;;;0.98;;
67433;SDS011;54305;47.950;6.572;2023-11-19T10:56:30;0.90;;;0.90;;
67433;SDS011;54305;47.950;6.572;2023-11-19T10:59:01;0.77;;;0.77;;
67433;SDS011;54305;47.950;6.572;2023-11-19T11:01:37;0.93;;;0.93;;
67433;SDS011;54305;47.950;6.572;2023-11-19T11:04:19;32.33;;;2.00;;
67433;SDS011;54305;47.950;6.572;2023-11-19T11:06:47;75.82;;;2.30;;
67433;SDS011;54305;47.950;6.572;2023-11-19T11:09:14;1.83;;;1.40;;
67433;SDS011;54305;47.950;6.572;2023-11-19T11:11:40;1.38;;;1.13;;
67433;SDS011;54305;47.950;6.572;2023-11-19T11:14:09;1.00;;;1.00;;
67433;SDS011;54305;47.950;6.572;2023-11-19T11:16:42;13.55;;;1.63;;
67433;SDS011;54305;47.950;6.572;2023-11-19T11:19:09;12.50;;;1.15;;
67433;SDS011;54305;47.950;6.572;2023-11-19T11:21:35;1.45;;;1.33;;
67433;SDS011;54305;47.950;6.572;2023-11-19T11:29:55;2.33;;;1.60;;
67433;SDS011;54305;47.950;6.572;2023-11-19T11:32:54;4.10;;;1.65;;
67433;SDS011;54305;47.950;6.572;2023-11-19T11:38:30;16.25;;;1.95;;
67433;SDS011;54305;47.950;6.572;2023-11-19T11:41:19;33.03;;;2.70;;
67433;SDS011;54305;47.950;6.572;2023-11-19T11:43:46;25.70;;;2.45;;
67433;SDS011;54305;47.950;6.572;2023-11-19T11:48:57;16.88;;;2.03;;
67433;SDS011;54305;47.950;6.572;2023-11-19T11:54:11;10.55;;;2.33;;
67433;SDS011;54305;47.950;6.572;2023-11-19T11:57:07;85.70;;;4.43;;
67433;SDS011;54305;47.950;6.572;2023-11-19T12:02:08;147.23;;;5.45;;
67433;SDS011;54305;47.950;6.572;2023-11-19T12:04:34;12.85;;;2.70;;
67433;SDS011;54305;47.950;6.572;2023-11-19T12:07:07;3.90;;;2.80;;
67433;SDS011;54305;47.950;6.572;2023-11-19T12:09:37;2.45;;;2.20;;
67433;SDS011;54305;47.950;6.572;2023-11-19T12:19:59;4.88;;;2.75;;
67433;SDS011;54305;47.950;6.572;2023-11-19T12:22:30;3.50;;;2.10;;
67433;SDS011;54305;47.950;6.572;2023-11-19T12:24:56;6.93;;;2.80;;
67433;SDS011;54305;47.950;6.572;2023-11-19T12:27:21;20.27;;;3.60;;
67433;SDS011;54305;47.950;6.572;2023-11-19T12:29:48;6.45;;;2.58;;
67433;SDS011;54305;47.950;6.572;2023-11-19T12:32:14;8.15;;;2.50;;
67433;SDS011;54305;47.950;6.572;2023-11-19T12:34:39;7.22;;;2.97;;
67433;SDS011;54305;47.950;6.572;2023-11-19T12:37:05;4.28;;;2.55;;
67433;SDS011;54305;47.950;6.572;2023-11-19T12:39:31;4.63;;;3.00;;
67433;SDS011;54305;47.950;6.572;2023-11-19T12:41:57;152.60;;;6.15;;
67433;SDS011;54305;47.950;6.572;2023-11-19T12:44:24;233.40;;;8.35;;
67433;SDS011;54305;47.950;6.572;2023-11-19T12:47:01;6.55;;;3.13;;
67433;SDS011;54305;47.950;6.572;2023-11-19T12:49:36;3.10;;;2.78;;
67433;SDS011;54305;47.950;6.572;2023-11-19T12:52:01;6.03;;;2.65;;
67433;SDS011;54305;47.950;6.572;2023-11-19T12:54:36;5.00;;;3.13;;
67433;SDS011;54305;47.950;6.572;2023-11-19T12:57:02;3.55;;;3.10;;
67433;SDS011;54305;47.950;6.572;2023-11-19T12:59:29;5.50;;;3.08;;
67433;SDS011;54305;47.950;6.572;2023-11-19T13:01:58;6.63;;;3.08;;
67433;SDS011;54305;47.950;6.572;2023-11-19T13:04:27;7.65;;;2.97;;
67433;SDS011;54305;47.950;6.572;2023-11-19T13:06:53;3.72;;;2.70;;
67433;SDS011;54305;47.950;6.572;2023-11-19T13:09:25;3.40;;;2.05;;
67433;SDS011;54305;47.950;6.572;2023-11-19T13:11:52;5.70;;;2.65;;
67433;SDS011;54305;47.950;6.572;2023-11-19T13:14:19;2.47;;;2.25;;
67433;SDS011;54305;47.950;6.572;2023-11-19T13:16:44;3.08;;;2.45;;
67433;SDS011;54305;47.950;6.572;2023-11-19T13:19:14;2.20;;;2.00;;
67433;SDS011;54305;47.950;6.572;2023-11-19T13:21:41;3.67;;;2.25;;
67433;SDS011;54305;47.950;6.572;2023-11-19T13:24:07;2.95;;;1.95;;
67433;SDS011;54305;47.950;6.572;2023-11-19T13:26:32;5.88;;;2.15;;
67433;SDS011;54305;47.950;6.572;2023-11-19T13:28:58;1.88;;;1.48;;
67433;SDS011;54305;47.950;6.572;2023-11-19T13:31:23;8.55;;;2.40;;
67433;SDS011;54305;47.950;6.572;2023-11-19T13:33:49;3.33;;;1.98;;
67433;SDS011;54305;47.950;6.572;2023-11-19T13:36:14;2.72;;;1.83;;
67433;SDS011;54305;47.950;6.572;2023-11-19T13:38:40;3.58;;;1.67;;
67433;SDS011;54305;47.950;6.572;2023-11-19T13:41:12;2.78;;;1.70;;
67433;SDS011;54305;47.950;6.572;2023-11-19T13:43:38;6.45;;;1.92;;
67433;SDS011;54305;47.950;6.572;2023-11-19T13:46:04;4.47;;;1.85;;
67433;SDS011;54305;47.950;6.572;2023-11-19T13:48:30;3.42;;;1.92;;
67433;SDS011;54305;47.950;6.572;2023-11-19T13:50:56;3.40;;;1.92;;
67433;SDS011;54305;47.950;6.572;2023-11-19T13:53:21;4.38;;;1.73;;
67433;SDS011;54305;47.950;6.572;2023-11-19T13:55:48;2.50;;;1.60;;
67433;SDS011;54305;47.950;6.572;2023-11-19T13:58:14;3.35;;;1.60;;
67433;SDS011;54305;47.950;6.572;2023-11-19T14:00:39;3.40;;;1.60;;
67433;SDS011;54305;47.950;6.572;2023-11-19T14:03:07;3.65;;;1.90;;
67433;SDS011;54305;47.950;6.572;2023-11-19T14:05:32;8.38;;;2.10;;
67433;SDS011;54305;47.950;6.572;2023-11-19T14:07:57;3.45;;;2.03;;
67433;SDS011;54305;47.950;6.572;2023-11-19T14:10:23;4.50;;;1.95;;
67433;SDS011;54305;47.950;6.572;2023-11-19T14:12:48;2.85;;;1.73;;
67433;SDS011;54305;47.950;6.572;2023-11-19T14:15:16;2.42;;;1.90;;
67433;SDS011;54305;47.950;6.572;2023-11-19T14:17:42;2.20;;;1.83;;
67433;SDS011;54305;47.950;6.572;2023-11-19T14:20:08;3.28;;;1.83;;
67433;SDS011;54305;47.950;6.572;2023-11-19T14:22:45;3.10;;;2.03;;
67433;SDS011;54305;47.950;6.572;2023-11-19T14:25:15;3.05;;;1.90;;
67433;SDS011;54305;47.950;6.572;2023-11-19T14:27:41;2.42;;;1.60;;
67433;SDS011;54305;47.950;6.572;2023-11-19T14:30:09;6.15;;;2.10;;
67433;SDS011;54305;47.950;6.572;2023-11-19T14:32:39;1.63;;;1.52;;
67433;SDS011;54305;47.950;6.572;2023-11-19T14:35:06;2.78;;;1.75;;
67433;SDS011;54305;47.950;6.572;2023-11-19T14:37:32;2.65;;;1.60;;
67433;SDS011;54305;47.950;6.572;2023-11-19T14:39:58;1.70;;;1.45;;
67433;SDS011;54305;47.950;6.572;2023-11-19T14:42:23;3.08;;;1.90;;
67433;SDS011;54305;47.950;6.572;2023-11-19T14:44:50;2.42;;;1.80;;
67433;SDS011;54305;47.950;6.572;2023-11-19T14:47:19;3.17;;;2.10;;
67433;SDS011;54305;47.950;6.572;2023-11-19T14:49:44;2.58;;;1.77;;
67433;SDS011;54305;47.950;6.572;2023-11-19T14:52:12;4.10;;;1.92;;
67433;SDS011;54305;47.950;6.572;2023-11-19T14:54:37;4.63;;;2.13;;
67433;SDS011;54305;47.950;6.572;2023-11-19T14:57:06;2.35;;;2.00;;
67433;SDS011;54305;47.950;6.572;2023-11-19T14:59:36;2.40;;;2.10;;
67433;SDS011;54305;47.950;6.572;2023-11-19T15:02:02;69.70;;;38.45;;
67433;SDS011;54305;47.950;6.572;2023-11-19T15:04:27;15.45;;;9.73;;
67433;SDS011;54305;47.950;6.572;2023-11-19T15:06:53;8.45;;;6.22;;
67433;SDS011;54305;47.950;6.572;2023-11-19T15:09:18;1.90;;;1.70;;